Hlavní strana
METAR-TAF:

METAR-TAF

Letiště :

Hartsfield-Jackson International Airport

Atlanta, Georgie, Spojené státy americké

zeměpisná šířka: 33-38-25N, zeměpisná délka: 084-25-37W, výška: 313 m

Aktuální stav počasí

Zpráva byla vytvořena před 43 minutami, v 03:52 UTC
Západoseverozápadní vítr 4 kt
Teplota 6°C
Vlhkost vzduchu 81%
Tlak 1021 hPa
Viditelnost: 16.1 km
Skoro jasno ve výšce 25000 ft

METAR: KATL 170352Z 30004KT 10SM FEW250 06/03 A3016 RMK AO2 SLP219 T00560028

Čas: 23:35 (04:35 UTC)

Předpověď počasí

Zpráva byla vytvořena před 1 hodinou a 0 minutami, v 03:35 UTC
Předpověď platná od 17 v 04 UTC do 18 v 06 UTC
Západoseverozápadní vítr 5 kt
Viditelnost: 10 km
Skoro jasno ve výšce 25000 ft
Od 18 v 0000 UTC
vítr z různých směrů 3 kt
Viditelnost: 10 km
Jasno

TAF: KATL 170335Z 1704/1806 30005KT P6SM FEW250 FM180000 VRB03KT P6SM SKC

Stav a předpovědi počasí z více než 4 000 letišť (zprávy METAR a TAF).

Červené a žluté tečky na mapě představují dostupné meteorologické stanice.

Když kurzor umístíte na tečku, zobrazí se název stanice.

Pak kliknutím zobrazíte stav a předpověď počasí.

Chcete-li změnit mapu, kliknutím na zelené tlačítko se znaménkem +mapu přiblížíte, kliknutím na zelené tlačítko se znaménkem – mapu oddálíte a kliknutím na zelené šipky přejdete na sousední mapy.


METAR-TAF: